sensor_id;sensor_type;location;lat;lon;timestamp;P1;durP1;ratioP1;P2;durP2;ratioP2
38567;SDS011;24338;48.280;10.970;2022-12-07T00:01:32;13.13;;;8.40;;
38567;SDS011;24338;48.280;10.970;2022-12-07T00:04:01;9.25;;;6.28;;
38567;SDS011;24338;48.280;10.970;2022-12-07T00:06:39;7.85;;;5.43;;
38567;SDS011;24338;48.280;10.970;2022-12-07T00:09:08;10.77;;;6.68;;
38567;SDS011;24338;48.280;10.970;2022-12-07T00:11:37;10.27;;;6.93;;
38567;SDS011;24338;48.280;10.970;2022-12-07T00:14:05;10.15;;;6.65;;
38567;SDS011;24338;48.280;10.970;2022-12-07T00:16:34;10.98;;;6.60;;
38567;SDS011;24338;48.280;10.970;2022-12-07T00:19:02;12.48;;;7.85;;
38567;SDS011;24338;48.280;10.970;2022-12-07T00:21:30;11.70;;;7.78;;
38567;SDS011;24338;48.280;10.970;2022-12-07T00:23:59;11.85;;;7.63;;
38567;SDS011;24338;48.280;10.970;2022-12-07T00:26:37;11.40;;;8.30;;
38567;SDS011;24338;48.280;10.970;2022-12-07T00:29:06;12.07;;;8.45;;
38567;SDS011;24338;48.280;10.970;2022-12-07T00:31:37;9.57;;;6.70;;
38567;SDS011;24338;48.280;10.970;2022-12-07T00:34:06;10.75;;;7.32;;
38567;SDS011;24338;48.280;10.970;2022-12-07T00:36:33;11.00;;;7.30;;
38567;SDS011;24338;48.280;10.970;2022-12-07T00:39:00;10.02;;;6.57;;
38567;SDS011;24338;48.280;10.970;2022-12-07T00:41:28;10.90;;;6.82;;
38567;SDS011;24338;48.280;10.970;2022-12-07T00:43:56;11.82;;;7.20;;
38567;SDS011;24338;48.280;10.970;2022-12-07T00:46:23;11.63;;;6.63;;
38567;SDS011;24338;48.280;10.970;2022-12-07T00:48:51;9.40;;;6.70;;
38567;SDS011;24338;48.280;10.970;2022-12-07T00:51:20;11.07;;;6.97;;
38567;SDS011;24338;48.280;10.970;2022-12-07T00:53:48;10.20;;;6.68;;
38567;SDS011;24338;48.280;10.970;2022-12-07T00:56:20;11.85;;;7.10;;
38567;SDS011;24338;48.280;10.970;2022-12-07T00:58:55;12.07;;;7.45;;
38567;SDS011;24338;48.280;10.970;2022-12-07T01:01:24;11.40;;;7.30;;
38567;SDS011;24338;48.280;10.970;2022-12-07T01:03:53;10.77;;;6.88;;
38567;SDS011;24338;48.280;10.970;2022-12-07T01:06:20;10.68;;;7.35;;
38567;SDS011;24338;48.280;10.970;2022-12-07T01:08:48;9.77;;;6.88;;
38567;SDS011;24338;48.280;10.970;2022-12-07T01:11:16;11.00;;;6.82;;
38567;SDS011;24338;48.280;10.970;2022-12-07T01:13:45;11.65;;;6.88;;
38567;SDS011;24338;48.280;10.970;2022-12-07T01:16:14;9.60;;;6.50;;
38567;SDS011;24338;48.280;10.970;2022-12-07T01:18:42;9.90;;;6.97;;
38567;SDS011;24338;48.280;10.970;2022-12-07T01:21:13;12.13;;;7.07;;
38567;SDS011;24338;48.280;10.970;2022-12-07T01:23:47;11.38;;;7.95;;
38567;SDS011;24338;48.280;10.970;2022-12-07T01:26:15;10.98;;;7.70;;
38567;SDS011;24338;48.280;10.970;2022-12-07T01:28:44;11.07;;;7.32;;
38567;SDS011;24338;48.280;10.970;2022-12-07T01:31:13;10.25;;;7.03;;
38567;SDS011;24338;48.280;10.970;2022-12-07T01:33:42;10.88;;;7.57;;
38567;SDS011;24338;48.280;10.970;2022-12-07T01:38:45;12.05;;;7.72;;
38567;SDS011;24338;48.280;10.970;2022-12-07T01:41:14;11.23;;;7.05;;
38567;SDS011;24338;48.280;10.970;2022-12-07T01:44:07;12.38;;;8.00;;
38567;SDS011;24338;48.280;10.970;2022-12-07T01:46:39;11.65;;;7.15;;
38567;SDS011;24338;48.280;10.970;2022-12-07T01:49:08;11.73;;;7.90;;
38567;SDS011;24338;48.280;10.970;2022-12-07T01:51:40;11.07;;;7.22;;
38567;SDS011;24338;48.280;10.970;2022-12-07T01:54:09;9.75;;;6.63;;
38567;SDS011;24338;48.280;10.970;2022-12-07T01:56:39;11.65;;;7.70;;
38567;SDS011;24338;48.280;10.970;2022-12-07T01:59:09;12.48;;;7.82;;
38567;SDS011;24338;48.280;10.970;2022-12-07T02:01:36;12.57;;;6.90;;
38567;SDS011;24338;48.280;10.970;2022-12-07T02:04:03;9.77;;;7.28;;
38567;SDS011;24338;48.280;10.970;2022-12-07T02:06:32;13.55;;;8.45;;
38567;SDS011;24338;48.280;10.970;2022-12-07T02:08:59;12.05;;;7.75;;
38567;SDS011;24338;48.280;10.970;2022-12-07T02:11:26;11.25;;;7.47;;
38567;SDS011;24338;48.280;10.970;2022-12-07T02:13:53;12.65;;;7.40;;
38567;SDS011;24338;48.280;10.970;2022-12-07T02:16:25;12.35;;;7.63;;
38567;SDS011;24338;48.280;10.970;2022-12-07T02:21:52;12.40;;;7.22;;
38567;SDS011;24338;48.280;10.970;2022-12-07T02:27:28;11.70;;;7.47;;
38567;SDS011;24338;48.280;10.970;2022-12-07T02:30:22;11.32;;;6.82;;
38567;SDS011;24338;48.280;10.970;2022-12-07T02:33:00;12.07;;;8.30;;
38567;SDS011;24338;48.280;10.970;2022-12-07T02:38:37;13.40;;;8.23;;
38567;SDS011;24338;48.280;10.970;2022-12-07T02:43:52;10.80;;;7.45;;
38567;SDS011;24338;48.280;10.970;2022-12-07T02:46:27;11.18;;;7.32;;
38567;SDS011;24338;48.280;10.970;2022-12-07T02:48:57;12.60;;;7.50;;
38567;SDS011;24338;48.280;10.970;2022-12-07T02:51:29;9.93;;;6.63;;
38567;SDS011;24338;48.280;10.970;2022-12-07T02:53:57;9.38;;;5.75;;
38567;SDS011;24338;48.280;10.970;2022-12-07T03:09:57;13.35;;;8.35;;
38567;SDS011;24338;48.280;10.970;2022-12-07T03:12:31;11.93;;;7.93;;
38567;SDS011;24338;48.280;10.970;2022-12-07T03:15:23;14.48;;;8.27;;
38567;SDS011;24338;48.280;10.970;2022-12-07T03:18:15;11.98;;;7.90;;
38567;SDS011;24338;48.280;10.970;2022-12-07T03:20:44;12.20;;;7.63;;
38567;SDS011;24338;48.280;10.970;2022-12-07T03:23:16;12.27;;;7.15;;
38567;SDS011;24338;48.280;10.970;2022-12-07T03:25:46;11.50;;;8.00;;
38567;SDS011;24338;48.280;10.970;2022-12-07T03:28:24;11.52;;;7.68;;
38567;SDS011;24338;48.280;10.970;2022-12-07T03:30:59;12.18;;;7.60;;
38567;SDS011;24338;48.280;10.970;2022-12-07T03:39:00;12.95;;;7.80;;
38567;SDS011;24338;48.280;10.970;2022-12-07T03:41:50;13.77;;;8.98;;
38567;SDS011;24338;48.280;10.970;2022-12-07T03:44:18;11.57;;;7.88;;
38567;SDS011;24338;48.280;10.970;2022-12-07T03:46:52;11.68;;;7.53;;
38567;SDS011;24338;48.280;10.970;2022-12-07T03:49:39;10.68;;;8.25;;
38567;SDS011;24338;48.280;10.970;2022-12-07T03:54:44;12.50;;;8.23;;
38567;SDS011;24338;48.280;10.970;2022-12-07T03:57:23;8.23;;;5.10;;
38567;SDS011;24338;48.280;10.970;2022-12-07T03:59:53;11.57;;;8.00;;
38567;SDS011;24338;48.280;10.970;2022-12-07T04:02:21;12.75;;;9.02;;
38567;SDS011;24338;48.280;10.970;2022-12-07T04:04:51;12.85;;;7.32;;
38567;SDS011;24338;48.280;10.970;2022-12-07T04:07:18;12.43;;;7.90;;
38567;SDS011;24338;48.280;10.970;2022-12-07T04:09:45;13.45;;;9.10;;
38567;SDS011;24338;48.280;10.970;2022-12-07T04:12:12;12.02;;;7.80;;
38567;SDS011;24338;48.280;10.970;2022-12-07T04:14:39;14.35;;;8.82;;
38567;SDS011;24338;48.280;10.970;2022-12-07T04:17:06;13.90;;;8.43;;
38567;SDS011;24338;48.280;10.970;2022-12-07T04:19:33;14.15;;;8.68;;
38567;SDS011;24338;48.280;10.970;2022-12-07T04:22:01;12.40;;;8.00;;
38567;SDS011;24338;48.280;10.970;2022-12-07T04:24:29;12.18;;;8.05;;
38567;SDS011;24338;48.280;10.970;2022-12-07T04:26:57;13.38;;;8.50;;
38567;SDS011;24338;48.280;10.970;2022-12-07T04:29:24;11.35;;;7.88;;
38567;SDS011;24338;48.280;10.970;2022-12-07T04:31:51;12.88;;;9.15;;
38567;SDS011;24338;48.280;10.970;2022-12-07T04:34:18;13.50;;;8.80;;
38567;SDS011;24338;48.280;10.970;2022-12-07T04:36:46;12.75;;;8.02;;
38567;SDS011;24338;48.280;10.970;2022-12-07T04:39:18;12.77;;;8.13;;
38567;SDS011;24338;48.280;10.970;2022-12-07T04:41:47;13.05;;;8.48;;
38567;SDS011;24338;48.280;10.970;2022-12-07T04:44:14;12.18;;;8.35;;
38567;SDS011;24338;48.280;10.970;2022-12-07T04:46:42;12.48;;;8.35;;
38567;SDS011;24338;48.280;10.970;2022-12-07T04:49:09;13.57;;;8.73;;
38567;SDS011;24338;48.280;10.970;2022-12-07T04:51:37;14.23;;;9.10;;
38567;SDS011;24338;48.280;10.970;2022-12-07T04:54:04;12.60;;;9.05;;
38567;SDS011;24338;48.280;10.970;2022-12-07T04:56:31;15.90;;;10.30;;
38567;SDS011;24338;48.280;10.970;2022-12-07T04:58:59;14.05;;;9.27;;
38567;SDS011;24338;48.280;10.970;2022-12-07T05:01:26;12.75;;;8.48;;
38567;SDS011;24338;48.280;10.970;2022-12-07T05:03:53;13.85;;;9.10;;
38567;SDS011;24338;48.280;10.970;2022-12-07T05:06:20;13.35;;;8.73;;
38567;SDS011;24338;48.280;10.970;2022-12-07T05:08:46;13.40;;;8.30;;
38567;SDS011;24338;48.280;10.970;2022-12-07T05:11:14;13.77;;;9.40;;
38567;SDS011;24338;48.280;10.970;2022-12-07T05:14:05;14.20;;;9.77;;
38567;SDS011;24338;48.280;10.970;2022-12-07T05:16:35;13.70;;;8.90;;
38567;SDS011;24338;48.280;10.970;2022-12-07T05:19:03;14.10;;;8.80;;
38567;SDS011;24338;48.280;10.970;2022-12-07T05:21:30;14.65;;;9.32;;
38567;SDS011;24338;48.280;10.970;2022-12-07T05:23:57;12.48;;;8.40;;
38567;SDS011;24338;48.280;10.970;2022-12-07T05:26:24;17.17;;;10.55;;
38567;SDS011;24338;48.280;10.970;2022-12-07T05:28:51;14.20;;;9.23;;
38567;SDS011;24338;48.280;10.970;2022-12-07T05:31:19;14.77;;;10.48;;
38567;SDS011;24338;48.280;10.970;2022-12-07T05:33:47;16.10;;;10.10;;
38567;SDS011;24338;48.280;10.970;2022-12-07T05:36:14;18.00;;;11.98;;
38567;SDS011;24338;48.280;10.970;2022-12-07T05:38:41;14.38;;;9.57;;
38567;SDS011;24338;48.280;10.970;2022-12-07T05:41:08;16.30;;;10.57;;
38567;SDS011;24338;48.280;10.970;2022-12-07T05:43:58;18.35;;;10.13;;
38567;SDS011;24338;48.280;10.970;2022-12-07T05:46:25;17.52;;;10.40;;
38567;SDS011;24338;48.280;10.970;2022-12-07T05:48:53;16.15;;;10.40;;
38567;SDS011;24338;48.280;10.970;2022-12-07T05:51:19;16.05;;;10.57;;
38567;SDS011;24338;48.280;10.970;2022-12-07T05:53:46;14.65;;;10.93;;
38567;SDS011;24338;48.280;10.970;2022-12-07T05:56:13;17.35;;;11.40;;
38567;SDS011;24338;48.280;10.970;2022-12-07T05:58:40;17.90;;;11.10;;
38567;SDS011;24338;48.280;10.970;2022-12-07T06:01:25;17.73;;;9.93;;
38567;SDS011;24338;48.280;10.970;2022-12-07T06:03:52;17.27;;;11.48;;
38567;SDS011;24338;48.280;10.970;2022-12-07T06:06:19;19.70;;;12.30;;
38567;SDS011;24338;48.280;10.970;2022-12-07T06:08:46;17.15;;;11.63;;
38567;SDS011;24338;48.280;10.970;2022-12-07T06:11:13;21.08;;;12.63;;
38567;SDS011;24338;48.280;10.970;2022-12-07T06:13:58;17.23;;;11.43;;
38567;SDS011;24338;48.280;10.970;2022-12-07T06:16:25;17.30;;;11.60;;
38567;SDS011;24338;48.280;10.970;2022-12-07T06:18:52;18.33;;;11.65;;
38567;SDS011;24338;48.280;10.970;2022-12-07T06:21:19;19.15;;;12.30;;
38567;SDS011;24338;48.280;10.970;2022-12-07T06:23:46;18.60;;;11.90;;
38567;SDS011;24338;48.280;10.970;2022-12-07T06:26:14;18.45;;;11.73;;
38567;SDS011;24338;48.280;10.970;2022-12-07T06:28:41;19.48;;;12.38;;
38567;SDS011;24338;48.280;10.970;2022-12-07T06:31:08;19.77;;;13.00;;
38567;SDS011;24338;48.280;10.970;2022-12-07T06:33:39;18.10;;;12.52;;
38567;SDS011;24338;48.280;10.970;2022-12-07T06:36:07;17.80;;;11.57;;
38567;SDS011;24338;48.280;10.970;2022-12-07T06:38:34;19.60;;;11.63;;
38567;SDS011;24338;48.280;10.970;2022-12-07T06:41:01;21.15;;;13.10;;
38567;SDS011;24338;48.280;10.970;2022-12-07T06:43:28;19.42;;;12.48;;
38567;SDS011;24338;48.280;10.970;2022-12-07T06:45:55;22.17;;;13.63;;
38567;SDS011;24338;48.280;10.970;2022-12-07T06:48:22;19.92;;;12.35;;
38567;SDS011;24338;48.280;10.970;2022-12-07T06:50:49;17.95;;;12.68;;
38567;SDS011;24338;48.280;10.970;2022-12-07T06:53:20;19.70;;;12.20;;
38567;SDS011;24338;48.280;10.970;2022-12-07T06:55:48;19.60;;;13.40;;
38567;SDS011;24338;48.280;10.970;2022-12-07T06:58:15;21.42;;;13.88;;
38567;SDS011;24338;48.280;10.970;2022-12-07T07:00:43;18.02;;;11.50;;
38567;SDS011;24338;48.280;10.970;2022-12-07T07:03:10;19.00;;;12.73;;
38567;SDS011;24338;48.280;10.970;2022-12-07T07:05:37;18.63;;;12.18;;
38567;SDS011;24338;48.280;10.970;2022-12-07T07:08:04;19.77;;;12.63;;
38567;SDS011;24338;48.280;10.970;2022-12-07T07:10:48;19.90;;;12.85;;
38567;SDS011;24338;48.280;10.970;2022-12-07T07:13:15;21.83;;;13.15;;
38567;SDS011;24338;48.280;10.970;2022-12-07T07:15:42;19.42;;;12.30;;
38567;SDS011;24338;48.280;10.970;2022-12-07T07:18:09;23.75;;;13.25;;
38567;SDS011;24338;48.280;10.970;2022-12-07T07:20:36;20.30;;;12.43;;
38567;SDS011;24338;48.280;10.970;2022-12-07T07:23:03;20.85;;;13.57;;
38567;SDS011;24338;48.280;10.970;2022-12-07T07:25:31;23.35;;;14.27;;
38567;SDS011;24338;48.280;10.970;2022-12-07T07:27:58;20.67;;;12.50;;
38567;SDS011;24338;48.280;10.970;2022-12-07T07:30:25;23.00;;;13.82;;
38567;SDS011;24338;48.280;10.970;2022-12-07T07:32:57;22.08;;;14.48;;
38567;SDS011;24338;48.280;10.970;2022-12-07T07:35:25;21.27;;;13.30;;
38567;SDS011;24338;48.280;10.970;2022-12-07T07:37:52;21.02;;;13.10;;
38567;SDS011;24338;48.280;10.970;2022-12-07T07:40:19;20.92;;;12.25;;
38567;SDS011;24338;48.280;10.970;2022-12-07T07:42:53;22.27;;;12.75;;
38567;SDS011;24338;48.280;10.970;2022-12-07T07:45:21;22.15;;;13.77;;
38567;SDS011;24338;48.280;10.970;2022-12-07T07:47:49;21.80;;;14.18;;
38567;SDS011;24338;48.280;10.970;2022-12-07T07:50:16;23.83;;;13.80;;
38567;SDS011;24338;48.280;10.970;2022-12-07T07:52:44;22.63;;;13.02;;
38567;SDS011;24338;48.280;10.970;2022-12-07T07:55:12;19.73;;;12.90;;
38567;SDS011;24338;48.280;10.970;2022-12-07T07:57:39;22.48;;;14.73;;
38567;SDS011;24338;48.280;10.970;2022-12-07T08:00:07;21.85;;;13.95;;
38567;SDS011;24338;48.280;10.970;2022-12-07T08:02:39;22.55;;;12.60;;
38567;SDS011;24338;48.280;10.970;2022-12-07T08:05:07;21.10;;;12.98;;
38567;SDS011;24338;48.280;10.970;2022-12-07T08:07:34;24.48;;;14.10;;
38567;SDS011;24338;48.280;10.970;2022-12-07T08:10:01;23.75;;;13.55;;
38567;SDS011;24338;48.280;10.970;2022-12-07T08:12:28;22.35;;;14.77;;
38567;SDS011;24338;48.280;10.970;2022-12-07T08:14:55;26.13;;;14.48;;
38567;SDS011;24338;48.280;10.970;2022-12-07T08:17:22;25.17;;;14.23;;
38567;SDS011;24338;48.280;10.970;2022-12-07T08:19:49;23.90;;;15.90;;
38567;SDS011;24338;48.280;10.970;2022-12-07T08:22:16;26.33;;;15.07;;
38567;SDS011;24338;48.280;10.970;2022-12-07T08:24:43;24.85;;;15.10;;
38567;SDS011;24338;48.280;10.970;2022-12-07T08:27:09;25.38;;;16.27;;
38567;SDS011;24338;48.280;10.970;2022-12-07T08:29:36;26.20;;;16.58;;
38567;SDS011;24338;48.280;10.970;2022-12-07T08:32:03;24.15;;;15.02;;
38567;SDS011;24338;48.280;10.970;2022-12-07T08:34:34;24.55;;;15.60;;
38567;SDS011;24338;48.280;10.970;2022-12-07T08:37:02;26.40;;;15.32;;
38567;SDS011;24338;48.280;10.970;2022-12-07T08:39:29;22.75;;;14.07;;
38567;SDS011;24338;48.280;10.970;2022-12-07T08:41:57;25.70;;;14.70;;
38567;SDS011;24338;48.280;10.970;2022-12-07T08:44:24;24.48;;;14.63;;
38567;SDS011;24338;48.280;10.970;2022-12-07T08:46:56;26.55;;;15.50;;
38567;SDS011;24338;48.280;10.970;2022-12-07T08:49:31;27.83;;;17.38;;
38567;SDS011;24338;48.280;10.970;2022-12-07T08:52:09;24.33;;;16.08;;
38567;SDS011;24338;48.280;10.970;2022-12-07T08:54:36;23.48;;;14.98;;
38567;SDS011;24338;48.280;10.970;2022-12-07T08:57:05;23.77;;;15.02;;
38567;SDS011;24338;48.280;10.970;2022-12-07T08:59:33;24.45;;;15.15;;
38567;SDS011;24338;48.280;10.970;2022-12-07T09:02:02;24.35;;;15.15;;
38567;SDS011;24338;48.280;10.970;2022-12-07T09:04:31;21.00;;;13.07;;
38567;SDS011;24338;48.280;10.970;2022-12-07T09:06:59;21.67;;;13.32;;
38567;SDS011;24338;48.280;10.970;2022-12-07T09:09:26;22.60;;;13.70;;
38567;SDS011;24338;48.280;10.970;2022-12-07T09:11:53;21.52;;;14.20;;
38567;SDS011;24338;48.280;10.970;2022-12-07T09:16:48;25.40;;;15.75;;
38567;SDS011;24338;48.280;10.970;2022-12-07T09:19:15;20.75;;;12.95;;
38567;SDS011;24338;48.280;10.970;2022-12-07T09:21:42;22.58;;;14.43;;
38567;SDS011;24338;48.280;10.970;2022-12-07T09:24:09;20.77;;;13.25;;
38567;SDS011;24338;48.280;10.970;2022-12-07T09:26:37;21.75;;;13.23;;
38567;SDS011;24338;48.280;10.970;2022-12-07T09:29:05;23.00;;;14.65;;
38567;SDS011;24338;48.280;10.970;2022-12-07T09:31:32;20.45;;;13.00;;
38567;SDS011;24338;48.280;10.970;2022-12-07T09:34:01;21.98;;;13.02;;
38567;SDS011;24338;48.280;10.970;2022-12-07T09:36:28;20.85;;;12.60;;
38567;SDS011;24338;48.280;10.970;2022-12-07T09:38:55;21.25;;;12.98;;
38567;SDS011;24338;48.280;10.970;2022-12-07T09:41:23;19.40;;;12.55;;
38567;SDS011;24338;48.280;10.970;2022-12-07T09:43:52;21.88;;;14.07;;
38567;SDS011;24338;48.280;10.970;2022-12-07T09:46:23;19.98;;;12.45;;
38567;SDS011;24338;48.280;10.970;2022-12-07T09:48:50;24.58;;;16.73;;
38567;SDS011;24338;48.280;10.970;2022-12-07T09:51:18;26.13;;;16.30;;
38567;SDS011;24338;48.280;10.970;2022-12-07T09:53:51;22.05;;;12.57;;
38567;SDS011;24338;48.280;10.970;2022-12-07T09:56:19;21.10;;;13.45;;
38567;SDS011;24338;48.280;10.970;2022-12-07T09:58:47;21.73;;;14.43;;
38567;SDS011;24338;48.280;10.970;2022-12-07T10:01:16;22.67;;;13.73;;
38567;SDS011;24338;48.280;10.970;2022-12-07T10:03:50;24.63;;;14.13;;
38567;SDS011;24338;48.280;10.970;2022-12-07T10:08:53;20.95;;;13.05;;
38567;SDS011;24338;48.280;10.970;2022-12-07T10:11:20;22.02;;;11.85;;
38567;SDS011;24338;48.280;10.970;2022-12-07T10:13:48;21.63;;;13.27;;
38567;SDS011;24338;48.280;10.970;2022-12-07T10:24:43;17.33;;;11.25;;
38567;SDS011;24338;48.280;10.970;2022-12-07T10:27:26;15.07;;;9.93;;
38567;SDS011;24338;48.280;10.970;2022-12-07T10:29:58;17.80;;;10.85;;
38567;SDS011;24338;48.280;10.970;2022-12-07T10:37:53;15.40;;;9.48;;
38567;SDS011;24338;48.280;10.970;2022-12-07T10:40:34;14.07;;;9.53;;
38567;SDS011;24338;48.280;10.970;2022-12-07T10:43:17;14.52;;;9.88;;
38567;SDS011;24338;48.280;10.970;2022-12-07T10:48:54;11.40;;;7.05;;
38567;SDS011;24338;48.280;10.970;2022-12-07T10:56:56;11.45;;;7.72;;
38567;SDS011;24338;48.280;10.970;2022-12-07T11:10:49;12.88;;;7.22;;
38567;SDS011;24338;48.280;10.970;2022-12-07T11:13:42;13.23;;;7.82;;
38567;SDS011;24338;48.280;10.970;2022-12-07T11:25:27;12.55;;;7.22;;
38567;SDS011;24338;48.280;10.970;2022-12-07T11:29:15;11.20;;;6.63;;
38567;SDS011;24338;48.280;10.970;2022-12-07T11:34:00;10.30;;;7.15;;
38567;SDS011;24338;48.280;10.970;2022-12-07T11:41:56;11.60;;;7.45;;
38567;SDS011;24338;48.280;10.970;2022-12-07T11:47:08;9.85;;;6.43;;
38567;SDS011;24338;48.280;10.970;2022-12-07T11:52:20;9.18;;;6.65;;
38567;SDS011;24338;48.280;10.970;2022-12-07T11:54:53;8.05;;;5.43;;
38567;SDS011;24338;48.280;10.970;2022-12-07T11:57:42;10.90;;;6.82;;
38567;SDS011;24338;48.280;10.970;2022-12-07T12:00:14;11.45;;;6.20;;
38567;SDS011;24338;48.280;10.970;2022-12-07T12:02:46;9.60;;;5.80;;
38567;SDS011;24338;48.280;10.970;2022-12-07T12:05:22;13.55;;;8.45;;
38567;SDS011;24338;48.280;10.970;2022-12-07T12:07:53;9.82;;;6.30;;
38567;SDS011;24338;48.280;10.970;2022-12-07T12:22:21;17.27;;;9.60;;
38567;SDS011;24338;48.280;10.970;2022-12-07T12:24:56;11.65;;;6.85;;
38567;SDS011;24338;48.280;10.970;2022-12-07T12:27:30;10.15;;;6.50;;
38567;SDS011;24338;48.280;10.970;2022-12-07T12:30:01;11.90;;;7.72;;
38567;SDS011;24338;48.280;10.970;2022-12-07T12:32:40;13.18;;;7.72;;
38567;SDS011;24338;48.280;10.970;2022-12-07T12:38:37;12.95;;;8.55;;
38567;SDS011;24338;48.280;10.970;2022-12-07T12:54:58;10.43;;;6.30;;
38567;SDS011;24338;48.280;10.970;2022-12-07T12:57:35;9.27;;;6.20;;
38567;SDS011;24338;48.280;10.970;2022-12-07T13:00:21;11.23;;;7.65;;
38567;SDS011;24338;48.280;10.970;2022-12-07T13:05:21;9.68;;;6.72;;
38567;SDS011;24338;48.280;10.970;2022-12-07T13:07:54;12.23;;;6.57;;
38567;SDS011;24338;48.280;10.970;2022-12-07T13:13:00;13.15;;;8.15;;
38567;SDS011;24338;48.280;10.970;2022-12-07T13:15:31;26.85;;;14.32;;
38567;SDS011;24338;48.280;10.970;2022-12-07T13:17:59;17.15;;;8.45;;
38567;SDS011;24338;48.280;10.970;2022-12-07T13:20:42;13.07;;;6.82;;
38567;SDS011;24338;48.280;10.970;2022-12-07T13:23:14;12.05;;;6.50;;
38567;SDS011;24338;48.280;10.970;2022-12-07T13:29:18;11.95;;;6.97;;
38567;SDS011;24338;48.280;10.970;2022-12-07T13:31:55;12.02;;;6.50;;
38567;SDS011;24338;48.280;10.970;2022-12-07T13:39:54;11.00;;;6.20;;
38567;SDS011;24338;48.280;10.970;2022-12-07T13:42:25;9.32;;;5.97;;
38567;SDS011;24338;48.280;10.970;2022-12-07T13:44:55;14.23;;;6.15;;
38567;SDS011;24338;48.280;10.970;2022-12-07T13:50:20;9.88;;;6.03;;
38567;SDS011;24338;48.280;10.970;2022-12-07T13:52:50;10.82;;;6.53;;
38567;SDS011;24338;48.280;10.970;2022-12-07T13:55:21;13.35;;;6.63;;
38567;SDS011;24338;48.280;10.970;2022-12-07T13:57:49;9.77;;;5.88;;
38567;SDS011;24338;48.280;10.970;2022-12-07T14:00:22;10.20;;;6.88;;
38567;SDS011;24338;48.280;10.970;2022-12-07T14:05:29;11.70;;;6.38;;
38567;SDS011;24338;48.280;10.970;2022-12-07T14:07:58;10.27;;;6.45;;
38567;SDS011;24338;48.280;10.970;2022-12-07T14:10:28;12.10;;;6.72;;
38567;SDS011;24338;48.280;10.970;2022-12-07T14:13:00;11.43;;;6.97;;
38567;SDS011;24338;48.280;10.970;2022-12-07T14:15:29;11.82;;;7.65;;
38567;SDS011;24338;48.280;10.970;2022-12-07T14:17:58;11.13;;;6.35;;
38567;SDS011;24338;48.280;10.970;2022-12-07T14:23:21;10.88;;;6.20;;
38567;SDS011;24338;48.280;10.970;2022-12-07T14:25:51;9.70;;;5.45;;
38567;SDS011;24338;48.280;10.970;2022-12-07T14:28:26;8.82;;;5.00;;
38567;SDS011;24338;48.280;10.970;2022-12-07T14:30:58;6.97;;;4.70;;
38567;SDS011;24338;48.280;10.970;2022-12-07T14:33:26;9.82;;;4.53;;
38567;SDS011;24338;48.280;10.970;2022-12-07T14:35:54;7.03;;;3.85;;
38567;SDS011;24338;48.280;10.970;2022-12-07T14:38:22;6.78;;;3.75;;
38567;SDS011;24338;48.280;10.970;2022-12-07T14:40:48;6.28;;;3.65;;
38567;SDS011;24338;48.280;10.970;2022-12-07T14:43:16;8.80;;;4.40;;
38567;SDS011;24338;48.280;10.970;2022-12-07T14:45:45;7.70;;;4.18;;
38567;SDS011;24338;48.280;10.970;2022-12-07T14:48:13;8.40;;;3.75;;
38567;SDS011;24338;48.280;10.970;2022-12-07T14:51:01;6.82;;;3.17;;
38567;SDS011;24338;48.280;10.970;2022-12-07T14:53:49;8.20;;;3.72;;
38567;SDS011;24338;48.280;10.970;2022-12-07T14:56:23;8.93;;;4.30;;
38567;SDS011;24338;48.280;10.970;2022-12-07T14:58:50;8.23;;;4.35;;
38567;SDS011;24338;48.280;10.970;2022-12-07T15:01:17;8.85;;;5.53;;
38567;SDS011;24338;48.280;10.970;2022-12-07T15:03:44;8.75;;;4.50;;
38567;SDS011;24338;48.280;10.970;2022-12-07T15:06:15;7.38;;;3.78;;
38567;SDS011;24338;48.280;10.970;2022-12-07T15:08:44;6.97;;;4.00;;
38567;SDS011;24338;48.280;10.970;2022-12-07T15:11:12;8.85;;;4.10;;
38567;SDS011;24338;48.280;10.970;2022-12-07T15:13:40;11.45;;;5.70;;
38567;SDS011;24338;48.280;10.970;2022-12-07T15:16:25;13.02;;;7.13;;
38567;SDS011;24338;48.280;10.970;2022-12-07T15:18:58;12.60;;;6.55;;
38567;SDS011;24338;48.280;10.970;2022-12-07T15:21:45;10.90;;;6.95;;
38567;SDS011;24338;48.280;10.970;2022-12-07T15:24:12;14.82;;;8.57;;
38567;SDS011;24338;48.280;10.970;2022-12-07T15:26:39;12.52;;;6.63;;
38567;SDS011;24338;48.280;10.970;2022-12-07T15:29:07;9.52;;;5.32;;
38567;SDS011;24338;48.280;10.970;2022-12-07T15:31:35;8.68;;;5.38;;
38567;SDS011;24338;48.280;10.970;2022-12-07T15:34:21;8.10;;;4.80;;
38567;SDS011;24338;48.280;10.970;2022-12-07T15:37:03;7.30;;;4.43;;
38567;SDS011;24338;48.280;10.970;2022-12-07T15:39:30;6.88;;;3.38;;
38567;SDS011;24338;48.280;10.970;2022-12-07T15:41:57;8.40;;;3.72;;
38567;SDS011;24338;48.280;10.970;2022-12-07T15:44:24;8.43;;;3.60;;
38567;SDS011;24338;48.280;10.970;2022-12-07T15:47:09;6.30;;;3.15;;
38567;SDS011;24338;48.280;10.970;2022-12-07T15:49:36;5.47;;;2.75;;
38567;SDS011;24338;48.280;10.970;2022-12-07T15:52:03;5.90;;;3.38;;
38567;SDS011;24338;48.280;10.970;2022-12-07T15:54:30;7.13;;;4.35;;
38567;SDS011;24338;48.280;10.970;2022-12-07T15:56:58;6.32;;;3.65;;
38567;SDS011;24338;48.280;10.970;2022-12-07T15:59:26;8.50;;;4.25;;
38567;SDS011;24338;48.280;10.970;2022-12-07T16:01:54;8.77;;;4.50;;
38567;SDS011;24338;48.280;10.970;2022-12-07T16:04:21;9.20;;;4.22;;
38567;SDS011;24338;48.280;10.970;2022-12-07T16:06:48;8.85;;;5.18;;
38567;SDS011;24338;48.280;10.970;2022-12-07T16:09:17;9.05;;;4.82;;
38567;SDS011;24338;48.280;10.970;2022-12-07T16:11:44;9.40;;;5.30;;
38567;SDS011;24338;48.280;10.970;2022-12-07T16:14:11;8.02;;;5.05;;
38567;SDS011;24338;48.280;10.970;2022-12-07T16:16:39;6.75;;;3.70;;
38567;SDS011;24338;48.280;10.970;2022-12-07T16:19:08;9.27;;;4.38;;
38567;SDS011;24338;48.280;10.970;2022-12-07T16:21:35;8.50;;;3.72;;
38567;SDS011;24338;48.280;10.970;2022-12-07T16:24:02;6.97;;;4.28;;
38567;SDS011;24338;48.280;10.970;2022-12-07T16:26:31;7.00;;;4.05;;
38567;SDS011;24338;48.280;10.970;2022-12-07T16:28:58;8.23;;;4.30;;
38567;SDS011;24338;48.280;10.970;2022-12-07T16:31:25;7.60;;;3.92;;
38567;SDS011;24338;48.280;10.970;2022-12-07T16:33:54;7.28;;;3.65;;
38567;SDS011;24338;48.280;10.970;2022-12-07T16:36:23;11.82;;;4.22;;
38567;SDS011;24338;48.280;10.970;2022-12-07T16:39:12;7.97;;;4.10;;
38567;SDS011;24338;48.280;10.970;2022-12-07T16:41:39;7.45;;;4.20;;
38567;SDS011;24338;48.280;10.970;2022-12-07T16:44:07;8.90;;;4.10;;
38567;SDS011;24338;48.280;10.970;2022-12-07T16:46:36;6.97;;;3.75;;
38567;SDS011;24338;48.280;10.970;2022-12-07T16:49:03;6.82;;;3.25;;
38567;SDS011;24338;48.280;10.970;2022-12-07T16:51:30;8.15;;;3.35;;
38567;SDS011;24338;48.280;10.970;2022-12-07T16:53:57;7.60;;;3.08;;
38567;SDS011;24338;48.280;10.970;2022-12-07T16:56:25;6.03;;;3.20;;
38567;SDS011;24338;48.280;10.970;2022-12-07T16:58:53;6.60;;;3.70;;
38567;SDS011;24338;48.280;10.970;2022-12-07T17:01:21;7.30;;;3.85;;
38567;SDS011;24338;48.280;10.970;2022-12-07T17:03:49;7.85;;;4.20;;
38567;SDS011;24338;48.280;10.970;2022-12-07T17:06:17;7.38;;;4.38;;
38567;SDS011;24338;48.280;10.970;2022-12-07T17:08:46;9.77;;;4.72;;